sensor_id;sensor_type;location;lat;lon;timestamp;pressure;altitude;pressure_sealevel;temperature;humidity
66273;BME280;58450;52.150;4.466;2023-01-28T00:01:15;103035.44;;;3.25;100.00
66273;BME280;58450;52.150;4.466;2023-01-28T00:03:44;103035.19;;;3.14;100.00
66273;BME280;58450;52.150;4.466;2023-01-28T00:06:15;103032.78;;;3.09;100.00
66273;BME280;58450;52.150;4.466;2023-01-28T00:08:43;103036.66;;;3.20;100.00
66273;BME280;58450;52.150;4.466;2023-01-28T00:11:12;103031.94;;;3.25;100.00
66273;BME280;58450;52.150;4.466;2023-01-28T00:13:40;103030.13;;;3.25;100.00
66273;BME280;58450;52.150;4.466;2023-01-28T00:16:09;103028.41;;;3.24;100.00
66273;BME280;58450;52.150;4.466;2023-01-28T00:18:37;103019.50;;;3.25;100.00
66273;BME280;58450;52.150;4.466;2023-01-28T00:21:06;103022.06;;;3.27;100.00
66273;BME280;58450;52.150;4.466;2023-01-28T00:23:37;103032.00;;;3.23;100.00
66273;BME280;58450;52.150;4.466;2023-01-28T00:26:10;103020.88;;;3.17;100.00
66273;BME280;58450;52.150;4.466;2023-01-28T00:28:40;103025.25;;;3.18;100.00
66273;BME280;58450;52.150;4.466;2023-01-28T00:31:11;103021.09;;;3.12;100.00
66273;BME280;58450;52.150;4.466;2023-01-28T00:33:42;103019.38;;;3.11;100.00
66273;BME280;58450;52.150;4.466;2023-01-28T00:36:10;103026.09;;;3.18;100.00
66273;BME280;58450;52.150;4.466;2023-01-28T00:38:39;103020.94;;;3.15;100.00
66273;BME280;58450;52.150;4.466;2023-01-28T00:41:08;103020.94;;;3.15;100.00
66273;BME280;58450;52.150;4.466;2023-01-28T00:43:38;103016.50;;;3.16;100.00
66273;BME280;58450;52.150;4.466;2023-01-28T00:46:07;103025.31;;;3.16;100.00
66273;BME280;58450;52.150;4.466;2023-01-28T00:48:38;103028.06;;;3.15;100.00
66273;BME280;58450;52.150;4.466;2023-01-28T00:51:08;103033.38;;;3.15;100.00
66273;BME280;58450;52.150;4.466;2023-01-28T00:53:37;103038.00;;;3.11;100.00
66273;BME280;58450;52.150;4.466;2023-01-28T00:56:07;103032.69;;;3.11;100.00
66273;BME280;58450;52.150;4.466;2023-01-28T00:58:37;103036.38;;;3.08;100.00
66273;BME280;58450;52.150;4.466;2023-01-28T01:01:06;103038.28;;;3.06;100.00
66273;BME280;58450;52.150;4.466;2023-01-28T01:03:37;103034.06;;;3.02;100.00
66273;BME280;58450;52.150;4.466;2023-01-28T01:06:06;103026.00;;;3.04;100.00
66273;BME280;58450;52.150;4.466;2023-01-28T01:08:35;103036.66;;;3.04;100.00
66273;BME280;58450;52.150;4.466;2023-01-28T01:11:09;103033.22;;;3.02;100.00
66273;BME280;58450;52.150;4.466;2023-01-28T01:13:38;103036.81;;;3.01;100.00
66273;BME280;58450;52.150;4.466;2023-01-28T01:16:07;103040.47;;;2.98;100.00
66273;BME280;58450;52.150;4.466;2023-01-28T01:18:39;103041.53;;;2.95;100.00
66273;BME280;58450;52.150;4.466;2023-01-28T01:21:08;103035.03;;;2.84;100.00
66273;BME280;58450;52.150;4.466;2023-01-28T01:23:37;103032.47;;;2.82;100.00
66273;BME280;58450;52.150;4.466;2023-01-28T01:26:06;103038.41;;;2.87;100.00
66273;BME280;58450;52.150;4.466;2023-01-28T01:28:34;103036.53;;;2.89;100.00
66273;BME280;58450;52.150;4.466;2023-01-28T01:31:04;103031.38;;;2.86;100.00
66273;BME280;58450;52.150;4.466;2023-01-28T01:33:33;103025.59;;;2.78;100.00
66273;BME280;58450;52.150;4.466;2023-01-28T01:36:03;103023.94;;;2.75;100.00
66273;BME280;58450;52.150;4.466;2023-01-28T01:38:30;103029.66;;;2.85;100.00
66273;BME280;58450;52.150;4.466;2023-01-28T01:40:59;103021.50;;;2.88;100.00
66273;BME280;58450;52.150;4.466;2023-01-28T01:43:46;103031.22;;;2.89;100.00
66273;BME280;58450;52.150;4.466;2023-01-28T01:46:16;103025.78;;;2.91;100.00
66273;BME280;58450;52.150;4.466;2023-01-28T01:48:48;103026.53;;;2.77;100.00
66273;BME280;58450;52.150;4.466;2023-01-28T01:51:21;103031.75;;;2.78;100.00
66273;BME280;58450;52.150;4.466;2023-01-28T01:53:52;103017.63;;;2.78;100.00
66273;BME280;58450;52.150;4.466;2023-01-28T01:56:28;103018.56;;;2.77;100.00
66273;BME280;58450;52.150;4.466;2023-01-28T01:59:02;103022.31;;;2.73;100.00
66273;BME280;58450;52.150;4.466;2023-01-28T02:01:31;103021.06;;;2.80;100.00
66273;BME280;58450;52.150;4.466;2023-01-28T02:04:03;103023.47;;;2.85;100.00
66273;BME280;58450;52.150;4.466;2023-01-28T02:06:36;103040.28;;;2.85;100.00
66273;BME280;58450;52.150;4.466;2023-01-28T02:11:49;103036.38;;;2.92;100.00
66273;BME280;58450;52.150;4.466;2023-01-28T02:14:21;103028.84;;;3.01;100.00
66273;BME280;58450;52.150;4.466;2023-01-28T02:16:53;103033.38;;;2.99;100.00
66273;BME280;58450;52.150;4.466;2023-01-28T02:19:23;103039.47;;;3.01;100.00
66273;BME280;58450;52.150;4.466;2023-01-28T02:22:13;103049.06;;;3.03;100.00
66273;BME280;58450;52.150;4.466;2023-01-28T02:25:34;103048.22;;;3.03;100.00
66273;BME280;58450;52.150;4.466;2023-01-28T02:28:25;103041.81;;;3.07;100.00
66273;BME280;58450;52.150;4.466;2023-01-28T02:31:08;103041.81;;;3.07;100.00
66273;BME280;58450;52.150;4.466;2023-01-28T02:33:47;103040.66;;;3.11;100.00
66273;BME280;58450;52.150;4.466;2023-01-28T02:36:27;103035.53;;;3.08;100.00
66273;BME280;58450;52.150;4.466;2023-01-28T02:39:04;103034.59;;;3.09;100.00
66273;BME280;58450;52.150;4.466;2023-01-28T02:41:41;103042.22;;;3.15;100.00
66273;BME280;58450;52.150;4.466;2023-01-28T02:44:17;103039.50;;;3.17;100.00
66273;BME280;58450;52.150;4.466;2023-01-28T02:46:44;103034.84;;;3.20;100.00
66273;BME280;58450;52.150;4.466;2023-01-28T02:49:33;103031.41;;;3.18;100.00
66273;BME280;58450;52.150;4.466;2023-01-28T02:52:17;103028.91;;;3.15;100.00
66273;BME280;58450;52.150;4.466;2023-01-28T02:55:14;103039.72;;;3.12;100.00
66273;BME280;58450;52.150;4.466;2023-01-28T02:57:55;103046.00;;;3.11;100.00
66273;BME280;58450;52.150;4.466;2023-01-28T03:00:40;103043.53;;;3.08;100.00
66273;BME280;58450;52.150;4.466;2023-01-28T03:03:16;103043.00;;;3.17;100.00
66273;BME280;58450;52.150;4.466;2023-01-28T03:05:51;103038.38;;;3.21;100.00
66273;BME280;58450;52.150;4.466;2023-01-28T03:08:35;103041.81;;;3.23;100.00
66273;BME280;58450;52.150;4.466;2023-01-28T03:11:25;103039.06;;;3.24;100.00
66273;BME280;58450;52.150;4.466;2023-01-28T03:14:12;103033.66;;;3.26;100.00
66273;BME280;58450;52.150;4.466;2023-01-28T03:17:03;103042.31;;;3.14;100.00
66273;BME280;58450;52.150;4.466;2023-01-28T03:19:51;103037.34;;;3.23;100.00
66273;BME280;58450;52.150;4.466;2023-01-28T03:22:40;103027.47;;;3.25;100.00
66273;BME280;58450;52.150;4.466;2023-01-28T03:25:30;103026.78;;;3.22;100.00
66273;BME280;58450;52.150;4.466;2023-01-28T03:28:20;103029.69;;;3.17;100.00
66273;BME280;58450;52.150;4.466;2023-01-28T03:31:09;103026.88;;;3.20;100.00
66273;BME280;58450;52.150;4.466;2023-01-28T03:34:00;103028.69;;;3.20;100.00
66273;BME280;58450;52.150;4.466;2023-01-28T03:36:48;103029.53;;;3.20;100.00
66273;BME280;58450;52.150;4.466;2023-01-28T03:39:21;103040.16;;;3.20;100.00
66273;BME280;58450;52.150;4.466;2023-01-28T03:41:56;103037.59;;;3.19;100.00
66273;BME280;58450;52.150;4.466;2023-01-28T03:44:25;103050.81;;;3.20;100.00
66273;BME280;58450;52.150;4.466;2023-01-28T03:47:11;103050.13;;;3.17;100.00
66273;BME280;58450;52.150;4.466;2023-01-28T03:49:41;103058.00;;;3.18;100.00
66273;BME280;58450;52.150;4.466;2023-01-28T03:52:11;103050.03;;;3.18;100.00
66273;BME280;58450;52.150;4.466;2023-01-28T03:54:38;103058.19;;;3.15;100.00
66273;BME280;58450;52.150;4.466;2023-01-28T03:57:06;103054.75;;;3.13;100.00
66273;BME280;58450;52.150;4.466;2023-01-28T03:59:34;103058.44;;;3.10;100.00
66273;BME280;58450;52.150;4.466;2023-01-28T04:02:01;103057.56;;;3.10;100.00
66273;BME280;58450;52.150;4.466;2023-01-28T04:04:30;103059.50;;;3.08;100.00
66273;BME280;58450;52.150;4.466;2023-01-28T04:06:59;103062.16;;;3.08;100.00
66273;BME280;58450;52.150;4.466;2023-01-28T04:09:27;103071.84;;;3.09;100.00
66273;BME280;58450;52.150;4.466;2023-01-28T04:11:54;103064.63;;;3.11;100.00
66273;BME280;58450;52.150;4.466;2023-01-28T04:14:22;103062.66;;;3.15;100.00
66273;BME280;58450;52.150;4.466;2023-01-28T04:16:49;103048.59;;;3.13;100.00
66273;BME280;58450;52.150;4.466;2023-01-28T04:19:20;103054.56;;;3.16;100.00
66273;BME280;58450;52.150;4.466;2023-01-28T04:21:48;103055.78;;;3.10;100.00
66273;BME280;58450;52.150;4.466;2023-01-28T04:24:17;103058.88;;;3.19;100.00
66273;BME280;58450;52.150;4.466;2023-01-28T04:26:44;103047.31;;;3.20;100.00
66273;BME280;58450;52.150;4.466;2023-01-28T04:29:12;103048.31;;;3.17;100.00
66273;BME280;58450;52.150;4.466;2023-01-28T04:31:39;103042.94;;;3.19;100.00
66273;BME280;58450;52.150;4.466;2023-01-28T04:34:07;103034.16;;;3.17;100.00
66273;BME280;58450;52.150;4.466;2023-01-28T04:36:35;103037.66;;;3.17;100.00
66273;BME280;58450;52.150;4.466;2023-01-28T04:39:03;103036.41;;;3.24;100.00
66273;BME280;58450;52.150;4.466;2023-01-28T04:41:32;103040.75;;;3.09;100.00
66273;BME280;58450;52.150;4.466;2023-01-28T04:43:59;103043.94;;;3.16;100.00
66273;BME280;58450;52.150;4.466;2023-01-28T04:46:27;103037.28;;;3.25;100.00
66273;BME280;58450;52.150;4.466;2023-01-28T04:48:54;103042.81;;;3.20;100.00
66273;BME280;58450;52.150;4.466;2023-01-28T04:51:22;103040.25;;;3.19;100.00
66273;BME280;58450;52.150;4.466;2023-01-28T04:53:49;103044.47;;;3.23;100.00
66273;BME280;58450;52.150;4.466;2023-01-28T04:56:17;103053.81;;;3.14;100.00
66273;BME280;58450;52.150;4.466;2023-01-28T04:58:46;103051.25;;;3.13;100.00
66273;BME280;58450;52.150;4.466;2023-01-28T05:01:13;103054.75;;;3.13;100.00
66273;BME280;58450;52.150;4.466;2023-01-28T05:03:41;103057.41;;;3.13;100.00
66273;BME280;58450;52.150;4.466;2023-01-28T05:06:08;103061.78;;;3.14;100.00
66273;BME280;58450;52.150;4.466;2023-01-28T05:08:36;103059.22;;;3.13;100.00
66273;BME280;58450;52.150;4.466;2023-01-28T05:11:03;103053.03;;;3.12;100.00
66273;BME280;58450;52.150;4.466;2023-01-28T05:13:31;103057.56;;;3.10;100.00
66273;BME280;58450;52.150;4.466;2023-01-28T05:16:00;103058.53;;;3.09;100.00
66273;BME280;58450;52.150;4.466;2023-01-28T05:18:27;103040.75;;;3.09;100.00
66273;BME280;58450;52.150;4.466;2023-01-28T05:20:55;103040.00;;;3.07;100.00
66273;BME280;58450;52.150;4.466;2023-01-28T05:23:22;103042.66;;;3.07;100.00
66273;BME280;58450;52.150;4.466;2023-01-28T05:25:50;103045.16;;;3.10;100.00
66273;BME280;58450;52.150;4.466;2023-01-28T05:28:17;103049.44;;;3.13;100.00
66273;BME280;58450;52.150;4.466;2023-01-28T05:30:45;103047.53;;;3.15;100.00
66273;BME280;58450;52.150;4.466;2023-01-28T05:33:14;103044.97;;;3.14;100.00
66273;BME280;58450;52.150;4.466;2023-01-28T05:35:41;103048.41;;;3.16;100.00
66273;BME280;58450;52.150;4.466;2023-01-28T05:38:09;103043.09;;;3.16;100.00
66273;BME280;58450;52.150;4.466;2023-01-28T05:40:37;103043.88;;;3.18;100.00
66273;BME280;58450;52.150;4.466;2023-01-28T05:43:05;103043.25;;;3.13;100.00
66273;BME280;58450;52.150;4.466;2023-01-28T05:45:32;103048.84;;;3.08;100.00
66273;BME280;58450;52.150;4.466;2023-01-28T05:48:00;103041.72;;;3.08;100.00
66273;BME280;58450;52.150;4.466;2023-01-28T05:50:28;103046.88;;;3.12;100.00
66273;BME280;58450;52.150;4.466;2023-01-28T05:52:56;103047.69;;;3.12;100.00
66273;BME280;58450;52.150;4.466;2023-01-28T05:55:23;103051.16;;;3.14;100.00
66273;BME280;58450;52.150;4.466;2023-01-28T05:57:51;103044.97;;;3.14;100.00
66273;BME280;58450;52.150;4.466;2023-01-28T06:00:19;103049.78;;;3.07;100.00
66273;BME280;58450;52.150;4.466;2023-01-28T06:02:49;103037.16;;;3.10;100.00
66273;BME280;58450;52.150;4.466;2023-01-28T06:05:17;103047.34;;;2.86;100.00
66273;BME280;58450;52.150;4.466;2023-01-28T06:07:46;103055.47;;;2.83;100.00
66273;BME280;58450;52.150;4.466;2023-01-28T06:10:14;103056.88;;;3.06;100.00
66273;BME280;58450;52.150;4.466;2023-01-28T06:12:43;103046.00;;;3.11;100.00
66273;BME280;58450;52.150;4.466;2023-01-28T06:15:11;103052.19;;;3.12;100.00
66273;BME280;58450;52.150;4.466;2023-01-28T06:17:38;103055.69;;;3.12;100.00
66273;BME280;58450;52.150;4.466;2023-01-28T06:20:07;103069.38;;;3.22;100.00
66273;BME280;58450;52.150;4.466;2023-01-28T06:22:35;103053.38;;;3.06;100.00
66273;BME280;58450;52.150;4.466;2023-01-28T06:25:05;103047.19;;;3.05;100.00
66273;BME280;58450;52.150;4.466;2023-01-28T06:27:33;103059.91;;;3.16;100.00
66273;BME280;58450;52.150;4.466;2023-01-28T06:30:01;103058.63;;;3.07;100.00
66273;BME280;58450;52.150;4.466;2023-01-28T06:32:29;103059.88;;;3.00;100.00
66273;BME280;58450;52.150;4.466;2023-01-28T06:34:57;103059.03;;;3.00;100.00
66273;BME280;58450;52.150;4.466;2023-01-28T06:37:24;103060.97;;;2.96;100.00
66273;BME280;58450;52.150;4.466;2023-01-28T06:39:52;103063.94;;;3.07;100.00
66273;BME280;58450;52.150;4.466;2023-01-28T06:42:21;103054.91;;;3.10;100.00
66273;BME280;58450;52.150;4.466;2023-01-28T06:44:49;103052.50;;;3.05;100.00
66273;BME280;58450;52.150;4.466;2023-01-28T06:47:16;103065.47;;;2.95;100.00
66273;BME280;58450;52.150;4.466;2023-01-28T06:49:44;103063.47;;;2.99;100.00
66273;BME280;58450;52.150;4.466;2023-01-28T06:52:11;103067.53;;;3.06;100.00
66273;BME280;58450;52.150;4.466;2023-01-28T06:54:39;103055.94;;;3.07;100.00
66273;BME280;58450;52.150;4.466;2023-01-28T06:57:06;103064.88;;;3.06;100.00
66273;BME280;58450;52.150;4.466;2023-01-28T06:59:35;103071.06;;;3.07;100.00
66273;BME280;58450;52.150;4.466;2023-01-28T07:02:02;103072.00;;;3.06;100.00
66273;BME280;58450;52.150;4.466;2023-01-28T07:04:30;103072.78;;;3.08;100.00
66273;BME280;58450;52.150;4.466;2023-01-28T07:06:58;103060.03;;;2.97;100.00
66273;BME280;58450;52.150;4.466;2023-01-28T07:09:25;103070.78;;;2.95;100.00
66273;BME280;58450;52.150;4.466;2023-01-28T07:11:53;103075.63;;;3.05;100.00
66273;BME280;58450;52.150;4.466;2023-01-28T07:14:20;103078.09;;;3.08;100.00
66273;BME280;58450;52.150;4.466;2023-01-28T07:16:49;103072.34;;;3.00;100.00
66273;BME280;58450;52.150;4.466;2023-01-28T07:19:16;103075.56;;;2.71;100.00
66273;BME280;58450;52.150;4.466;2023-01-28T07:21:44;103077.50;;;3.03;100.00
66273;BME280;58450;52.150;4.466;2023-01-28T07:24:11;103081.19;;;2.83;100.00
66273;BME280;58450;52.150;4.466;2023-01-28T07:26:39;103077.28;;;2.72;100.00
66273;BME280;58450;52.150;4.466;2023-01-28T07:29:07;103068.78;;;2.83;100.00
66273;BME280;58450;52.150;4.466;2023-01-28T07:31:35;103074.94;;;2.84;100.00
66273;BME280;58450;52.150;4.466;2023-01-28T07:34:04;103082.38;;;2.77;100.00
66273;BME280;58450;52.150;4.466;2023-01-28T07:36:31;103085.03;;;2.77;100.00
66273;BME280;58450;52.150;4.466;2023-01-28T07:38:59;103083.94;;;2.81;100.00
66273;BME280;58450;52.150;4.466;2023-01-28T07:41:26;103084.78;;;2.81;100.00
66273;BME280;58450;52.150;4.466;2023-01-28T07:43:54;103089.16;;;2.83;100.00
66273;BME280;58450;52.150;4.466;2023-01-28T07:46:21;103084.78;;;2.81;100.00
66273;BME280;58450;52.150;4.466;2023-01-28T07:48:49;103093.38;;;2.87;100.00
66273;BME280;58450;52.150;4.466;2023-01-28T07:51:17;103089.56;;;2.92;100.00
66273;BME280;58450;52.150;4.466;2023-01-28T07:53:45;103099.09;;;2.97;100.00
66273;BME280;58450;52.150;4.466;2023-01-28T07:56:12;103088.34;;;2.98;100.00
66273;BME280;58450;52.150;4.466;2023-01-28T07:58:40;103099.88;;;2.99;100.00
66273;BME280;58450;52.150;4.466;2023-01-28T08:01:07;103108.22;;;3.08;100.00
66273;BME280;58450;52.150;4.466;2023-01-28T08:03:35;103102.63;;;3.13;100.00
66273;BME280;58450;52.150;4.466;2023-01-28T08:06:03;103101.59;;;3.00;100.00
66273;BME280;58450;52.150;4.466;2023-01-28T08:08:32;103104.25;;;3.00;100.00
66273;BME280;58450;52.150;4.466;2023-01-28T08:11:05;103100.53;;;3.20;100.00
66273;BME280;58450;52.150;4.466;2023-01-28T08:13:34;103110.38;;;3.18;100.00
66273;BME280;58450;52.150;4.466;2023-01-28T08:16:02;103095.19;;;3.04;100.00
66273;BME280;58450;52.150;4.466;2023-01-28T08:18:29;103105.47;;;3.10;100.00
66273;BME280;58450;52.150;4.466;2023-01-28T08:20:58;103124.47;;;3.20;100.00
66273;BME280;58450;52.150;4.466;2023-01-28T08:23:26;103121.22;;;3.31;100.00
66273;BME280;58450;52.150;4.466;2023-01-28T08:25:57;103136.78;;;3.38;100.00
66273;BME280;58450;52.150;4.466;2023-01-28T08:28:25;103127.53;;;3.62;100.00
66273;BME280;58450;52.150;4.466;2023-01-28T08:30:53;103131.94;;;3.63;100.00
66273;BME280;58450;52.150;4.466;2023-01-28T08:33:20;103138.78;;;3.83;100.00
66273;BME280;58450;52.150;4.466;2023-01-28T08:35:48;103121.28;;;3.79;100.00
66273;BME280;58450;52.150;4.466;2023-01-28T08:38:15;103127.91;;;3.88;100.00
66273;BME280;58450;52.150;4.466;2023-01-28T08:40:45;103142.78;;;3.92;100.00
66273;BME280;58450;52.150;4.466;2023-01-28T08:43:16;103143.41;;;4.11;100.00
66273;BME280;58450;52.150;4.466;2023-01-28T08:45:44;103137.81;;;5.08;100.00
66273;BME280;58450;52.150;4.466;2023-01-28T08:48:15;103140.50;;;6.08;100.00
66273;BME280;58450;52.150;4.466;2023-01-28T08:50:44;103142.78;;;6.14;100.00
66273;BME280;58450;52.150;4.466;2023-01-28T08:53:14;103147.69;;;5.78;100.00
66273;BME280;58450;52.150;4.466;2023-01-28T08:55:43;103147.63;;;5.51;100.00
66273;BME280;58450;52.150;4.466;2023-01-28T08:58:13;103147.34;;;5.41;100.00
66273;BME280;58450;52.150;4.466;2023-01-28T09:00:44;103150.03;;;5.26;100.00
66273;BME280;58450;52.150;4.466;2023-01-28T09:03:11;103137.97;;;4.90;100.00
66273;BME280;58450;52.150;4.466;2023-01-28T09:05:39;103156.09;;;4.85;100.00
66273;BME280;58450;52.150;4.466;2023-01-28T09:08:08;103150.75;;;4.99;100.00
66273;BME280;58450;52.150;4.466;2023-01-28T09:10:38;103140.06;;;4.99;100.00
66273;BME280;58450;52.150;4.466;2023-01-28T09:13:07;103162.56;;;4.95;100.00
66273;BME280;58450;52.150;4.466;2023-01-28T09:15:37;103172.66;;;4.90;100.00
66273;BME280;58450;52.150;4.466;2023-01-28T09:18:06;103169.75;;;4.64;100.00
66273;BME280;58450;52.150;4.466;2023-01-28T09:20:34;103174.13;;;4.65;100.00
66273;BME280;58450;52.150;4.466;2023-01-28T09:23:03;103164.06;;;4.70;100.00
66273;BME280;58450;52.150;4.466;2023-01-28T09:25:31;103181.03;;;4.84;100.00
66273;BME280;58450;52.150;4.466;2023-01-28T09:27:59;103177.28;;;5.17;100.00
66273;BME280;58450;52.150;4.466;2023-01-28T09:30:26;103182.63;;;5.31;100.00
66273;BME280;58450;52.150;4.466;2023-01-28T09:32:55;103173.44;;;5.07;100.00
66273;BME280;58450;52.150;4.466;2023-01-28T09:35:25;103171.25;;;4.99;100.00
66273;BME280;58450;52.150;4.466;2023-01-28T09:37:56;103187.44;;;4.96;100.00
66273;BME280;58450;52.150;4.466;2023-01-28T09:40:30;103183.53;;;5.01;100.00
66273;BME280;58450;52.150;4.466;2023-01-28T09:43:14;103176.47;;;5.00;100.00
66273;BME280;58450;52.150;4.466;2023-01-28T09:45:55;103187.22;;;5.44;100.00
66273;BME280;58450;52.150;4.466;2023-01-28T09:48:27;103188.75;;;5.62;100.00
66273;BME280;58450;52.150;4.466;2023-01-28T09:51:07;103198.66;;;5.60;100.00
66273;BME280;58450;52.150;4.466;2023-01-28T09:53:42;103189.59;;;5.48;100.00
66273;BME280;58450;52.150;4.466;2023-01-28T09:56:21;103188.16;;;5.28;100.00
66273;BME280;58450;52.150;4.466;2023-01-28T09:58:52;103207.91;;;4.81;100.00
66273;BME280;58450;52.150;4.466;2023-01-28T10:01:37;103214.84;;;4.83;100.00
66273;BME280;58450;52.150;4.466;2023-01-28T10:04:19;103209.63;;;4.96;100.00
66273;BME280;58450;52.150;4.466;2023-01-28T10:07:10;103198.41;;;5.06;100.00
66273;BME280;58450;52.150;4.466;2023-01-28T10:09:50;103190.25;;;5.23;100.00
66273;BME280;58450;52.150;4.466;2023-01-28T10:12:40;103191.91;;;5.26;100.00
66273;BME280;58450;52.150;4.466;2023-01-28T10:15:29;103196.25;;;5.41;100.00
66273;BME280;58450;52.150;4.466;2023-01-28T10:18:12;103200.19;;;5.36;100.00
66273;BME280;58450;52.150;4.466;2023-01-28T10:20:44;103196.75;;;5.33;100.00
66273;BME280;58450;52.150;4.466;2023-01-28T10:23:20;103195.50;;;5.54;100.00
66273;BME280;58450;52.150;4.466;2023-01-28T10:25:50;103196.75;;;5.62;100.00
66273;BME280;58450;52.150;4.466;2023-01-28T10:28:23;103196.31;;;5.98;100.00
66273;BME280;58450;52.150;4.466;2023-01-28T10:30:54;103203.66;;;6.50;100.00
66273;BME280;58450;52.150;4.466;2023-01-28T10:33:28;103204.53;;;6.64;100.00
66273;BME280;58450;52.150;4.466;2023-01-28T10:36:02;103193.47;;;7.09;100.00
66273;BME280;58450;52.150;4.466;2023-01-28T10:38:31;103192.22;;;7.41;100.00
66273;BME280;58450;52.150;4.466;2023-01-28T10:41:01;103176.63;;;7.72;100.00
66273;BME280;58450;52.150;4.466;2023-01-28T10:43:32;103164.06;;;7.85;100.00
66273;BME280;58450;52.150;4.466;2023-01-28T10:46:06;103163.72;;;7.90;99.72
66273;BME280;58450;52.150;4.466;2023-01-28T10:48:41;103158.09;;;8.06;97.77
66273;BME280;58450;52.150;4.466;2023-01-28T10:51:12;103147.72;;;8.25;95.44
66273;BME280;58450;52.150;4.466;2023-01-28T10:53:42;103148.03;;;7.96;94.89
66273;BME280;58450;52.150;4.466;2023-01-28T10:56:14;103135.03;;;8.27;92.31
66273;BME280;58450;52.150;4.466;2023-01-28T10:58:53;103116.16;;;8.65;94.98
66273;BME280;58450;52.150;4.466;2023-01-28T11:01:37;103117.47;;;9.18;92.56
66273;BME280;58450;52.150;4.466;2023-01-28T11:04:16;103120.63;;;9.34;88.05
66273;BME280;58450;52.150;4.466;2023-01-28T11:06:56;103119.00;;;7.90;87.65
66273;BME280;58450;52.150;4.466;2023-01-28T11:09:28;103117.91;;;8.17;91.07
66273;BME280;58450;52.150;4.466;2023-01-28T11:12:08;103105.69;;;8.73;90.01
66273;BME280;58450;52.150;4.466;2023-01-28T11:14:37;103099.00;;;8.19;86.81
66273;BME280;58450;52.150;4.466;2023-01-28T11:17:16;103088.25;;;8.43;90.84
66273;BME280;58450;52.150;4.466;2023-01-28T11:19:45;103091.38;;;8.25;90.47
66273;BME280;58450;52.150;4.466;2023-01-28T11:22:21;103084.03;;;7.92;90.45
66273;BME280;58450;52.150;4.466;2023-01-28T11:24:55;103075.13;;;7.17;95.58
66273;BME280;58450;52.150;4.466;2023-01-28T11:27:26;103056.31;;;6.67;100.00
66273;BME280;58450;52.150;4.466;2023-01-28T11:29:57;103049.25;;;6.65;100.00
66273;BME280;58450;52.150;4.466;2023-01-28T11:32:30;103068.50;;;6.45;100.00
66273;BME280;58450;52.150;4.466;2023-01-28T11:34:57;103089.25;;;6.01;100.00
66273;BME280;58450;52.150;4.466;2023-01-28T11:37:27;103099.72;;;5.62;100.00
66273;BME280;58450;52.150;4.466;2023-01-28T11:40:14;103096.81;;;5.38;100.00
66273;BME280;58450;52.150;4.466;2023-01-28T11:42:45;103089.50;;;5.27;100.00
66273;BME280;58450;52.150;4.466;2023-01-28T11:45:15;103079.19;;;5.21;100.00
66273;BME280;58450;52.150;4.466;2023-01-28T11:48:00;103079.34;;;5.46;100.00
66273;BME280;58450;52.150;4.466;2023-01-28T11:50:38;103087.13;;;5.64;100.00
66273;BME280;58450;52.150;4.466;2023-01-28T11:53:52;103092.59;;;5.48;100.00
66273;BME280;58450;52.150;4.466;2023-01-28T11:56:48;103098.13;;;5.59;100.00
66273;BME280;58450;52.150;4.466;2023-01-28T11:59:41;103101.72;;;5.73;100.00
66273;BME280;58450;52.150;4.466;2023-01-28T12:02:29;103108.13;;;5.56;100.00
66273;BME280;58450;52.150;4.466;2023-01-28T12:05:18;103119.00;;;5.67;100.00
66273;BME280;58450;52.150;4.466;2023-01-28T12:08:05;103122.88;;;5.76;100.00
66273;BME280;58450;52.150;4.466;2023-01-28T12:10:44;103118.56;;;6.02;100.00
66273;BME280;58450;52.150;4.466;2023-01-28T12:13:27;103127.94;;;6.23;100.00
66273;BME280;58450;52.150;4.466;2023-01-28T12:16:26;103120.09;;;6.19;100.00
66273;BME280;58450;52.150;4.466;2023-01-28T12:19:13;103127.19;;;5.64;100.00
66273;BME280;58450;52.150;4.466;2023-01-28T12:22:01;103125.97;;;5.70;100.00
66273;BME280;58450;52.150;4.466;2023-01-28T12:24:46;103121.66;;;5.67;100.00
66273;BME280;58450;52.150;4.466;2023-01-28T12:27:33;103115.56;;;5.92;100.00
66273;BME280;58450;52.150;4.466;2023-01-28T12:30:20;103102.56;;;6.15;100.00
66273;BME280;58450;52.150;4.466;2023-01-28T12:32:58;103091.34;;;6.23;100.00
66273;BME280;58450;52.150;4.466;2023-01-28T12:35:43;103074.16;;;6.40;100.00
66273;BME280;58450;52.150;4.466;2023-01-28T12:38:34;103050.53;;;6.47;100.00
66273;BME280;58450;52.150;4.466;2023-01-28T12:41:12;103039.84;;;6.60;100.00
66273;BME280;58450;52.150;4.466;2023-01-28T12:43:48;103026.25;;;6.37;100.00
66273;BME280;58450;52.150;4.466;2023-01-28T12:46:29;103030.31;;;6.82;100.00
66273;BME280;58450;52.150;4.466;2023-01-28T12:49:08;103020.78;;;6.90;100.00
66273;BME280;58450;52.150;4.466;2023-01-28T12:51:53;103017.97;;;7.05;99.47
66273;BME280;58450;52.150;4.466;2023-01-28T12:54:30;103017.38;;;7.25;95.96
66273;BME280;58450;52.150;4.466;2023-01-28T12:57:04;103012.31;;;7.58;94.99
66273;BME280;58450;52.150;4.466;2023-01-28T12:59:44;103005.38;;;7.56;91.43
66273;BME280;58450;52.150;4.466;2023-01-28T13:02:22;103002.78;;;8.03;92.03
66273;BME280;58450;52.150;4.466;2023-01-28T13:05:01;103008.28;;;8.60;89.03
66273;BME280;58450;52.150;4.466;2023-01-28T13:07:38;103015.25;;;9.19;84.60
66273;BME280;58450;52.150;4.466;2023-01-28T13:10:18;103015.56;;;9.81;79.04
66273;BME280;58450;52.150;4.466;2023-01-28T13:12:51;103014.53;;;10.47;75.71
66273;BME280;58450;52.150;4.466;2023-01-28T13:15:21;103027.06;;;11.40;70.47
66273;BME280;58450;52.150;4.466;2023-01-28T13:17:55;103012.78;;;12.18;62.13
66273;BME280;58450;52.150;4.466;2023-01-28T13:20:36;103021.25;;;12.91;60.19
66273;BME280;58450;52.150;4.466;2023-01-28T13:23:21;103014.06;;;13.27;58.26